createdAt,value
2023-04-27T00:01:12.443Z,5.82
2023-04-27T00:03:41.914Z,5.86
2023-04-27T00:06:10.556Z,5.82
2023-04-27T00:08:39.070Z,5.89
2023-04-27T00:11:07.415Z,5.93
2023-04-27T00:13:35.843Z,5.97
2023-04-27T00:16:04.580Z,5.93
2023-04-27T00:18:33.302Z,5.82
2023-04-27T00:21:01.728Z,5.80
2023-04-27T00:23:30.101Z,5.73
2023-04-27T00:25:58.429Z,5.78
2023-04-27T00:28:27.108Z,5.80
2023-04-27T00:30:55.487Z,5.84
2023-04-27T00:33:23.797Z,5.86
2023-04-27T00:35:52.136Z,5.90
2023-04-27T00:38:22.638Z,5.96
2023-04-27T00:40:50.981Z,5.89
2023-04-27T00:43:19.349Z,5.98
2023-04-27T00:45:47.740Z,5.94
2023-04-27T00:48:16.230Z,5.89
2023-04-27T00:50:44.765Z,5.71
2023-04-27T00:53:14.609Z,5.73
2023-04-27T00:55:43.928Z,5.76
2023-04-27T00:58:12.336Z,5.66
2023-04-27T01:00:41.176Z,5.60
2023-04-27T01:03:10.042Z,5.60
2023-04-27T01:05:39.448Z,5.51
2023-04-27T01:08:10.096Z,5.40
2023-04-27T01:10:38.955Z,5.40
2023-04-27T01:13:07.512Z,5.35
2023-04-27T01:15:35.998Z,5.38
2023-04-27T01:18:04.715Z,5.40
2023-04-27T01:20:33.125Z,5.43
2023-04-27T01:23:01.588Z,5.47
2023-04-27T01:25:30.024Z,5.49
2023-04-27T01:27:58.331Z,5.53
2023-04-27T01:30:28.753Z,5.55
2023-04-27T01:32:57.119Z,5.54
2023-04-27T01:35:28.150Z,5.54
2023-04-27T01:38:01.658Z,5.50
2023-04-27T01:40:30.141Z,5.49
2023-04-27T01:42:58.610Z,5.59
2023-04-27T01:45:27.129Z,5.58
2023-04-27T01:47:56.277Z,5.55
2023-04-27T01:50:24.849Z,5.54
2023-04-27T01:52:53.209Z,5.52
2023-04-27T01:55:21.570Z,5.50
2023-04-27T01:57:49.932Z,5.46
2023-04-27T02:00:18.889Z,5.46
2023-04-27T02:02:57.782Z,5.43
2023-04-27T02:05:26.332Z,5.43
2023-04-27T02:07:54.738Z,5.39
2023-04-27T02:10:24.137Z,5.33
2023-04-27T02:12:57.472Z,5.33
2023-04-27T02:15:26.374Z,5.33
2023-04-27T02:17:55.484Z,5.28
2023-04-27T02:20:23.849Z,5.22
2023-04-27T02:22:53.525Z,5.23
2023-04-27T02:25:21.882Z,5.17
2023-04-27T02:27:50.321Z,5.18
2023-04-27T02:30:19.176Z,5.20
2023-04-27T02:32:48.228Z,5.20
2023-04-27T02:35:16.681Z,5.20
2023-04-27T02:37:45.144Z,5.19
2023-04-27T02:40:16.685Z,5.13
2023-04-27T02:42:45.109Z,5.16
2023-04-27T02:45:13.533Z,5.15
2023-04-27T02:47:42.173Z,5.12
2023-04-27T02:50:10.892Z,5.03
2023-04-27T02:52:39.310Z,5.08
2023-04-27T02:55:08.020Z,5.11
2023-04-27T02:57:36.817Z,5.10
2023-04-27T03:00:09.614Z,5.14
2023-04-27T03:02:38.341Z,5.12
2023-04-27T03:05:07.434Z,5.11
2023-04-27T03:07:35.903Z,5.12
2023-04-27T03:10:05.503Z,4.94
2023-04-27T03:12:33.785Z,5.04
2023-04-27T03:15:02.206Z,4.94
2023-04-27T03:17:30.781Z,5.03
2023-04-27T03:19:59.338Z,5.05
2023-04-27T03:22:27.645Z,5.10
2023-04-27T03:24:56.043Z,5.11
2023-04-27T03:27:24.432Z,5.14
2023-04-27T03:29:55.575Z,5.16
2023-04-27T03:32:23.938Z,5.17
2023-04-27T03:34:52.545Z,5.17
2023-04-27T03:37:20.890Z,5.16
2023-04-27T03:39:49.089Z,5.14
2023-04-27T03:42:17.742Z,5.18
2023-04-27T03:44:46.305Z,5.19
2023-04-27T03:47:14.638Z,5.24
2023-04-27T03:49:43.809Z,5.29
2023-04-27T03:52:12.575Z,5.32
2023-04-27T03:54:41.204Z,5.36
2023-04-27T03:57:09.626Z,5.38
2023-04-27T03:59:38.183Z,5.45
2023-04-27T04:02:06.820Z,5.42
2023-04-27T04:04:35.401Z,5.50
2023-04-27T04:07:04.168Z,5.45
2023-04-27T04:09:32.600Z,5.53
2023-04-27T04:12:02.093Z,5.55
2023-04-27T04:14:31.173Z,5.57
2023-04-27T04:16:59.706Z,5.59
2023-04-27T04:19:28.039Z,5.60
2023-04-27T04:21:57.323Z,5.63
2023-04-27T04:24:25.893Z,5.62
2023-04-27T04:26:54.222Z,5.68
2023-04-27T04:29:23.766Z,5.59
2023-04-27T04:31:52.480Z,5.77
2023-04-27T04:34:21.622Z,5.75
2023-04-27T04:36:52.887Z,5.75
2023-04-27T04:39:21.327Z,5.82
2023-04-27T04:41:50.164Z,5.85
2023-04-27T04:44:20.913Z,5.89
2023-04-27T04:46:49.530Z,5.87
2023-04-27T04:49:18.183Z,5.93
2023-04-27T04:51:48.821Z,5.97
2023-04-27T04:54:17.162Z,5.89
2023-04-27T04:56:46.013Z,6.00
2023-04-27T04:59:14.699Z,6.03
2023-04-27T05:01:43.365Z,5.87
2023-04-27T05:04:12.261Z,6.02
2023-04-27T05:06:40.974Z,6.14
2023-04-27T05:09:09.317Z,6.19
2023-04-27T05:11:38.192Z,6.22
2023-04-27T05:14:06.688Z,6.25
2023-04-27T05:16:35.064Z,6.30
2023-04-27T05:19:06.179Z,6.29
2023-04-27T05:21:34.757Z,6.36
2023-04-27T05:24:03.286Z,6.40
2023-04-27T05:26:31.641Z,6.35
2023-04-27T05:29:00.115Z,6.36
2023-04-27T05:31:28.510Z,6.41
2023-04-27T05:33:57.190Z,6.40
2023-04-27T05:36:25.714Z,6.38
2023-04-27T05:38:54.138Z,6.52
2023-04-27T05:41:23.475Z,6.49
2023-04-27T05:43:51.937Z,6.47
2023-04-27T05:46:21.350Z,6.51
2023-04-27T05:48:49.796Z,6.59
2023-04-27T05:51:18.169Z,6.57
2023-04-27T05:53:46.796Z,6.67
2023-04-27T05:56:15.125Z,6.64
2023-04-27T05:58:43.711Z,6.67
2023-04-27T06:01:13.084Z,6.77
2023-04-27T06:03:41.741Z,6.68
2023-04-27T06:06:10.529Z,6.77
2023-04-27T06:08:39.709Z,6.86
2023-04-27T06:11:08.044Z,6.84
2023-04-27T06:13:36.613Z,6.83
2023-04-27T06:16:05.876Z,7.00
2023-04-27T06:18:34.401Z,7.02
2023-04-27T06:21:02.858Z,7.08
2023-04-27T06:23:31.353Z,7.14
2023-04-27T06:25:59.759Z,7.12
2023-04-27T06:28:28.118Z,7.20
2023-04-27T06:30:56.596Z,7.24
2023-04-27T06:33:25.160Z,7.24
2023-04-27T06:35:53.508Z,7.30
2023-04-27T06:38:22.439Z,7.29
2023-04-27T06:40:52.193Z,7.43
2023-04-27T06:43:20.828Z,7.41
2023-04-27T06:45:49.245Z,7.43
2023-04-27T06:48:17.711Z,7.44
2023-04-27T06:50:46.210Z,7.54
2023-04-27T06:53:14.557Z,7.55
2023-04-27T06:55:46.856Z,7.61
2023-04-27T06:58:16.763Z,7.68
2023-04-27T07:00:45.142Z,7.76
2023-04-27T07:03:16.148Z,7.73
2023-04-27T07:05:45.385Z,7.79
2023-04-27T07:08:13.790Z,7.82
2023-04-27T07:10:42.171Z,7.89
2023-04-27T07:13:11.757Z,7.90
2023-04-27T07:15:40.955Z,7.98
2023-04-27T07:18:09.735Z,8.13
2023-04-27T07:20:38.594Z,8.17
2023-04-27T07:23:07.482Z,8.33
2023-04-27T07:25:35.925Z,8.44
2023-04-27T07:28:04.644Z,8.48
2023-04-27T07:30:36.870Z,8.58
2023-04-27T07:33:05.778Z,8.49
2023-04-27T07:35:34.446Z,8.52
2023-04-27T07:38:03.362Z,8.32
2023-04-27T07:40:33.128Z,8.53
2023-04-27T07:43:01.504Z,8.66
2023-04-27T07:45:33.715Z,8.74
2023-04-27T07:48:03.379Z,8.67
2023-04-27T07:50:32.688Z,8.78
2023-04-27T07:53:01.269Z,8.80
2023-04-27T07:55:29.856Z,8.80
2023-04-27T07:57:58.257Z,8.75
2023-04-27T08:00:26.823Z,8.75
2023-04-27T08:02:55.656Z,8.73
2023-04-27T08:05:24.757Z,8.73
2023-04-27T08:07:54.543Z,8.59
2023-04-27T08:10:24.707Z,8.54
2023-04-27T08:12:53.112Z,8.44
2023-04-27T08:15:21.704Z,8.32
2023-04-27T08:17:50.436Z,8.44
2023-04-27T08:20:19.661Z,8.44
2023-04-27T08:22:51.205Z,8.36
2023-04-27T08:25:20.130Z,8.35
2023-04-27T08:27:49.148Z,8.41
2023-04-27T08:30:18.107Z,8.38
2023-04-27T08:32:46.624Z,8.47
2023-04-27T08:35:15.315Z,8.49
2023-04-27T08:37:44.472Z,8.45
2023-04-27T08:40:13.372Z,8.60
2023-04-27T08:42:54.824Z,8.75
2023-04-27T08:45:24.745Z,8.60
2023-04-27T08:47:54.058Z,8.77
2023-04-27T08:50:24.397Z,8.91
2023-04-27T08:52:54.356Z,8.94
2023-04-27T08:55:23.842Z,8.94
2023-04-27T08:58:00.310Z,8.93
2023-04-27T09:00:45.436Z,9.00
2023-04-27T09:03:27.736Z,9.10
2023-04-27T09:06:05.242Z,9.25
2023-04-27T09:08:50.991Z,9.26
2023-04-27T09:11:36.226Z,9.35
2023-04-27T09:14:18.469Z,9.39
2023-04-27T09:16:55.602Z,9.42
2023-04-27T09:19:25.684Z,9.52
2023-04-27T09:22:11.507Z,9.64
2023-04-27T09:24:51.320Z,9.64
2023-04-27T09:27:21.954Z,9.74
2023-04-27T09:29:50.517Z,9.87
2023-04-27T09:32:24.539Z,9.75
2023-04-27T09:34:53.727Z,9.63
2023-04-27T09:37:22.568Z,9.63
2023-04-27T09:39:51.116Z,9.51
2023-04-27T09:42:19.613Z,9.55
2023-04-27T09:44:48.624Z,9.63
2023-04-27T09:47:17.026Z,9.56
2023-04-27T09:49:46.259Z,9.68
2023-04-27T09:52:14.817Z,9.65
2023-04-27T09:54:44.011Z,9.60
2023-04-27T09:57:38.170Z,9.54
2023-04-27T10:00:20.954Z,9.56
2023-04-27T10:03:02.745Z,9.50
2023-04-27T10:05:43.602Z,9.49
2023-04-27T10:08:12.228Z,9.53
2023-04-27T10:10:58.672Z,9.44
2023-04-27T10:13:27.667Z,9.58
2023-04-27T10:15:56.737Z,9.63
2023-04-27T10:18:31.006Z,9.60
2023-04-27T10:21:19.956Z,9.77
2023-04-27T10:23:52.379Z,9.77
2023-04-27T10:26:28.406Z,9.74
2023-04-27T10:29:19.827Z,9.74
2023-04-27T10:31:50.207Z,9.67
2023-04-27T10:34:21.704Z,9.57
2023-04-27T10:37:04.708Z,9.72
2023-04-27T10:39:47.815Z,9.82
2023-04-27T10:42:28.809Z,9.88
2023-04-27T10:44:58.438Z,9.81
2023-04-27T10:47:48.760Z,9.66
2023-04-27T10:50:21.112Z,9.85
2023-04-27T10:52:49.932Z,9.93
2023-04-27T10:55:21.633Z,10.12
2023-04-27T10:57:55.026Z,10.26
2023-04-27T11:00:29.232Z,10.50
2023-04-27T11:03:14.708Z,10.50
2023-04-27T11:05:45.532Z,10.65
2023-04-27T11:08:18.609Z,10.56
2023-04-27T11:10:50.361Z,10.34
2023-04-27T11:13:26.436Z,10.26
2023-04-27T11:16:05.262Z,10.07
2023-04-27T11:18:37.036Z,9.98
2023-04-27T11:21:21.895Z,9.88
2023-04-27T11:23:50.200Z,9.86
2023-04-27T11:26:22.845Z,9.82
2023-04-27T11:29:00.028Z,9.90
2023-04-27T11:31:38.559Z,9.81
2023-04-27T11:34:08.618Z,9.91
2023-04-27T11:36:37.895Z,9.85
2023-04-27T11:39:29.319Z,10.00
2023-04-27T11:41:57.947Z,10.17
2023-04-27T11:44:27.884Z,10.37
2023-04-27T11:46:56.456Z,10.60
2023-04-27T11:49:26.149Z,10.83
2023-04-27T11:51:57.761Z,10.88
2023-04-27T11:54:30.001Z,10.97
2023-04-27T11:57:08.398Z,11.01
2023-04-27T11:59:36.993Z,11.07
2023-04-27T12:02:05.471Z,11.00
2023-04-27T12:04:34.062Z,10.78
2023-04-27T12:07:04.380Z,10.75
2023-04-27T12:09:32.881Z,10.70
2023-04-27T12:12:02.895Z,10.56
2023-04-27T12:14:31.742Z,10.47
2023-04-27T12:17:00.308Z,10.47
2023-04-27T12:19:28.858Z,10.40
2023-04-27T12:21:58.353Z,10.37
2023-04-27T12:27:43.245Z,10.72
2023-04-27T12:30:12.339Z,10.81
2023-04-27T12:32:41.575Z,11.09
2023-04-27T12:35:10.867Z,11.17
2023-04-27T12:37:39.253Z,11.27
2023-04-27T12:40:09.270Z,11.21
2023-04-27T12:42:37.624Z,11.08
2023-04-27T12:45:15.392Z,10.97
2023-04-27T12:48:01.015Z,10.72
2023-04-27T12:50:37.887Z,10.33
2023-04-27T12:53:06.391Z,10.42
2023-04-27T12:55:37.791Z,10.51
2023-04-27T12:58:06.624Z,10.77
2023-04-27T13:00:35.095Z,11.07
2023-04-27T13:03:04.964Z,11.33
2023-04-27T13:05:33.690Z,11.69
2023-04-27T13:08:02.158Z,11.89
2023-04-27T13:10:30.653Z,12.05
2023-04-27T13:13:00.309Z,12.30
2023-04-27T13:15:29.084Z,12.43
2023-04-27T13:17:59.324Z,12.47
2023-04-27T13:20:27.847Z,12.38
2023-04-27T13:22:56.710Z,12.75
2023-04-27T13:25:25.140Z,12.97
2023-04-27T13:27:54.609Z,12.74
2023-04-27T13:30:23.198Z,12.42
2023-04-27T13:32:52.954Z,12.41
2023-04-27T13:35:21.462Z,12.18
2023-04-27T13:37:50.097Z,12.13
2023-04-27T13:40:18.649Z,11.90
2023-04-27T13:42:47.201Z,11.95
2023-04-27T13:45:15.565Z,11.91
2023-04-27T13:47:44.227Z,11.78
2023-04-27T13:50:12.882Z,11.60
2023-04-27T13:52:41.733Z,11.53
2023-04-27T13:55:11.397Z,11.32
2023-04-27T13:57:39.865Z,11.14
2023-04-27T14:00:11.677Z,11.31
2023-04-27T14:02:40.743Z,11.33
2023-04-27T14:05:09.469Z,11.37
2023-04-27T14:07:37.810Z,11.34
2023-04-27T14:10:07.161Z,11.29
2023-04-27T14:12:36.155Z,11.23
2023-04-27T14:15:05.425Z,11.16
2023-04-27T14:17:33.785Z,11.21
2023-04-27T14:20:02.217Z,11.16
2023-04-27T14:22:30.729Z,11.18
2023-04-27T14:24:59.091Z,11.27
2023-04-27T14:27:28.019Z,11.34
2023-04-27T14:29:56.344Z,11.32
2023-04-27T14:32:27.317Z,11.35
2023-04-27T14:34:56.541Z,11.44
2023-04-27T14:37:25.301Z,11.61
2023-04-27T14:39:53.812Z,11.47
2023-04-27T14:42:22.570Z,11.27
2023-04-27T14:44:51.520Z,10.89
2023-04-27T14:47:22.121Z,10.78
2023-04-27T14:49:50.809Z,10.57
2023-04-27T14:52:19.152Z,10.43
2023-04-27T14:55:10.004Z,10.26
2023-04-27T14:57:38.404Z,10.09
2023-04-27T15:00:10.195Z,10.14
2023-04-27T15:02:38.602Z,10.11
2023-04-27T15:05:07.709Z,10.08
2023-04-27T15:07:36.472Z,10.06
2023-04-27T15:10:05.088Z,10.08
2023-04-27T15:12:33.371Z,10.13
2023-04-27T15:15:01.742Z,10.19
2023-04-27T15:17:30.156Z,10.24
2023-04-27T15:19:58.594Z,10.31
2023-04-27T15:22:28.813Z,10.29
2023-04-27T15:24:57.271Z,10.33
2023-04-27T15:27:28.368Z,10.20
2023-04-27T15:29:58.588Z,10.23
2023-04-27T15:32:30.281Z,10.19
2023-04-27T15:34:59.021Z,10.13
2023-04-27T15:37:28.497Z,10.06
2023-04-27T15:39:57.129Z,10.17
2023-04-27T15:42:26.510Z,10.18
2023-04-27T15:44:54.957Z,10.11
2023-04-27T15:47:23.271Z,10.08
2023-04-27T15:49:57.360Z,10.04
2023-04-27T15:52:27.356Z,10.02
2023-04-27T15:54:56.322Z,9.94
2023-04-27T15:57:27.316Z,9.89
2023-04-27T15:59:55.705Z,9.74
2023-04-27T16:02:24.446Z,9.81
2023-04-27T16:04:56.744Z,9.75
2023-04-27T16:07:25.128Z,9.76
2023-04-27T16:09:53.645Z,9.75
2023-04-27T16:12:22.005Z,9.73
2023-04-27T16:14:52.058Z,9.72
2023-04-27T16:17:20.513Z,9.67
2023-04-27T16:19:48.867Z,9.72
2023-04-27T16:22:17.419Z,9.68
2023-04-27T16:24:45.725Z,9.68
2023-04-27T16:27:14.109Z,9.65
2023-04-27T16:29:42.405Z,9.61
2023-04-27T16:32:11.270Z,9.43
2023-04-27T16:34:41.788Z,9.47
2023-04-27T16:37:11.582Z,9.39
2023-04-27T16:39:40.004Z,9.37
2023-04-27T16:42:08.365Z,9.38
2023-04-27T16:44:38.254Z,9.39
2023-04-27T16:47:06.657Z,9.32
2023-04-27T16:49:35.805Z,9.21
2023-04-27T16:52:04.987Z,9.20
2023-04-27T16:54:33.285Z,9.17
2023-04-27T16:57:02.097Z,9.12
2023-04-27T16:59:31.452Z,9.05
2023-04-27T17:02:06.299Z,9.06
2023-04-27T17:04:45.326Z,9.01
2023-04-27T17:07:13.767Z,9.00
2023-04-27T17:09:42.273Z,9.00
2023-04-27T17:12:15.020Z,8.99
2023-04-27T17:14:43.377Z,8.98
2023-04-27T17:17:16.958Z,8.98
2023-04-27T17:19:57.917Z,8.94
2023-04-27T17:22:26.593Z,8.96
2023-04-27T17:24:54.996Z,8.94
2023-04-27T17:27:24.537Z,8.94
2023-04-27T17:29:54.372Z,8.92
2023-04-27T17:32:23.219Z,8.92
2023-04-27T17:34:52.717Z,8.83
2023-04-27T17:37:21.150Z,8.88
2023-04-27T17:39:51.895Z,8.69
2023-04-27T17:42:20.267Z,8.84
2023-04-27T17:44:48.673Z,8.84
2023-04-27T17:47:19.169Z,8.85
2023-04-27T17:49:47.526Z,8.81
2023-04-27T17:52:16.349Z,8.79
2023-04-27T17:54:44.685Z,8.74
2023-04-27T17:57:13.046Z,8.80
2023-04-27T17:59:41.408Z,8.80
2023-04-27T18:02:09.803Z,8.70
2023-04-27T18:04:40.296Z,8.70
2023-04-27T18:07:09.164Z,8.70
2023-04-27T18:09:38.128Z,8.71
2023-04-27T18:12:11.244Z,8.70
2023-04-27T18:14:39.774Z,8.68
2023-04-27T18:17:08.040Z,8.64
2023-04-27T18:19:36.339Z,8.65
2023-04-27T18:22:04.666Z,8.66
2023-04-27T18:24:33.210Z,8.65
2023-04-27T18:27:01.590Z,8.56
2023-04-27T18:29:30.166Z,8.61
2023-04-27T18:32:01.866Z,8.59
2023-04-27T18:34:30.201Z,8.58
2023-04-27T18:36:58.471Z,8.55
2023-04-27T18:39:26.958Z,8.53
2023-04-27T18:41:55.588Z,8.60
2023-04-27T18:44:23.924Z,8.59
2023-04-27T18:46:52.495Z,8.58
2023-04-27T18:49:22.006Z,8.58
2023-04-27T18:51:50.401Z,8.56
2023-04-27T18:54:18.710Z,8.54
2023-04-27T18:56:50.891Z,8.51
2023-04-27T18:59:20.214Z,8.45
2023-04-27T19:01:48.668Z,8.37
2023-04-27T19:04:17.130Z,8.32
2023-04-27T19:06:47.460Z,8.29
2023-04-27T19:09:16.291Z,8.21
2023-04-27T19:11:49.424Z,8.16
2023-04-27T19:14:20.998Z,8.11
2023-04-27T19:16:49.602Z,8.01
2023-04-27T19:19:18.152Z,8.01
2023-04-27T19:21:47.572Z,7.95
2023-04-27T19:24:16.063Z,7.90
2023-04-27T19:26:44.705Z,7.74
2023-04-27T19:29:13.282Z,7.83
2023-04-27T19:31:41.905Z,7.82
2023-04-27T19:34:10.371Z,7.80
2023-04-27T19:36:38.636Z,7.77
2023-04-27T19:39:07.273Z,7.72
2023-04-27T19:41:35.636Z,7.63
2023-04-27T19:44:04.130Z,7.61
2023-04-27T19:46:32.542Z,7.60
2023-04-27T19:49:01.379Z,7.56
2023-04-27T19:51:29.983Z,7.50
2023-04-27T19:53:58.308Z,7.44
2023-04-27T19:56:26.677Z,7.35
2023-04-27T19:58:54.928Z,7.36
2023-04-27T20:01:23.521Z,7.25
2023-04-27T20:03:53.826Z,7.21
2023-04-27T20:06:22.403Z,7.20
2023-04-27T20:08:51.213Z,7.11
2023-04-27T20:11:19.615Z,7.18
2023-04-27T20:13:47.962Z,7.14
2023-04-27T20:16:17.713Z,7.14
2023-04-27T20:18:46.823Z,7.13
2023-04-27T20:21:15.091Z,7.13
2023-04-27T20:23:43.444Z,7.06
2023-04-27T20:26:11.906Z,7.03
2023-04-27T20:28:40.271Z,6.98
2023-04-27T20:31:08.593Z,6.91
2023-04-27T20:33:37.010Z,6.96
2023-04-27T20:36:14.276Z,6.93
2023-04-27T20:38:53.580Z,6.90
2023-04-27T20:41:22.594Z,6.89
2023-04-27T20:43:52.588Z,6.85
2023-04-27T20:46:21.297Z,6.80
2023-04-27T20:48:49.644Z,6.79
2023-04-27T20:51:17.912Z,6.80
2023-04-27T20:53:46.477Z,6.78
2023-04-27T20:56:15.384Z,6.69
2023-04-27T20:58:43.757Z,6.69
2023-04-27T21:01:12.177Z,6.76
2023-04-27T21:03:41.858Z,6.76
2023-04-27T21:06:10.382Z,6.73
2023-04-27T21:08:39.011Z,6.69
2023-04-27T21:11:07.478Z,6.64
2023-04-27T21:13:36.150Z,6.62
2023-04-27T21:16:04.664Z,6.57
2023-04-27T21:18:33.126Z,6.59
2023-04-27T21:21:01.970Z,6.58
2023-04-27T21:23:30.393Z,6.59
2023-04-27T21:25:58.789Z,6.58
2023-04-27T21:28:27.208Z,6.58
2023-04-27T21:30:55.617Z,6.57
2023-04-27T21:33:24.070Z,6.54
2023-04-27T21:35:52.493Z,6.50
2023-04-27T21:38:20.866Z,6.46
2023-04-27T21:40:49.229Z,6.47
2023-04-27T21:43:17.690Z,6.50
2023-04-27T21:45:46.343Z,6.52
2023-04-27T21:48:14.728Z,6.52
2023-04-27T21:50:43.345Z,6.52
2023-04-27T21:53:11.728Z,6.49
2023-04-27T21:55:40.059Z,6.48
2023-04-27T21:58:08.681Z,6.47
2023-04-27T22:00:37.031Z,6.49
2023-04-27T22:03:05.527Z,6.49
2023-04-27T22:05:37.410Z,6.47
2023-04-27T22:08:08.063Z,6.47
2023-04-27T22:10:37.659Z,6.46
2023-04-27T22:13:17.648Z,6.39
2023-04-27T22:15:48.040Z,6.46
2023-04-27T22:18:16.470Z,6.45
2023-04-27T22:20:44.973Z,6.41
2023-04-27T22:23:13.685Z,6.40
2023-04-27T22:25:43.386Z,6.39
2023-04-27T22:28:11.842Z,6.30
2023-04-27T22:30:41.379Z,6.35
2023-04-27T22:33:10.192Z,6.37
2023-04-27T22:35:38.832Z,6.31
2023-04-27T22:38:07.741Z,6.28
2023-04-27T22:40:36.514Z,6.27
2023-04-27T22:43:04.893Z,6.20
2023-04-27T22:45:34.508Z,6.20
2023-04-27T22:48:03.982Z,6.15
2023-04-27T22:50:32.372Z,6.14
2023-04-27T22:53:01.217Z,6.06
2023-04-27T22:55:29.679Z,6.01
2023-04-27T22:57:58.073Z,5.97
2023-04-27T23:00:26.478Z,5.90
2023-04-27T23:02:54.915Z,5.87
2023-04-27T23:05:23.549Z,5.84
2023-04-27T23:07:52.144Z,5.85
2023-04-27T23:10:20.600Z,5.85
2023-04-27T23:12:49.043Z,5.80
2023-04-27T23:15:17.477Z,5.79
2023-04-27T23:17:45.923Z,5.73
2023-04-27T23:20:27.474Z,5.64
2023-04-27T23:22:57.181Z,5.67
2023-04-27T23:25:26.184Z,5.67
2023-04-27T23:27:54.513Z,5.68
2023-04-27T23:30:23.264Z,5.71
2023-04-27T23:32:52.336Z,5.71
2023-04-27T23:35:21.103Z,5.69
2023-04-27T23:37:49.539Z,5.63
2023-04-27T23:40:18.058Z,5.58
2023-04-27T23:42:46.359Z,5.40
2023-04-27T23:45:14.627Z,5.36
2023-04-27T23:47:43.262Z,5.31
2023-04-27T23:50:11.566Z,5.20
2023-04-27T23:52:39.986Z,5.10
2023-04-27T23:55:08.988Z,5.11
2023-04-27T23:57:37.561Z,5.15
